createdAt,value
2018-03-07T00:00:35.239Z,31.75
2018-03-07T00:01:39.349Z,30.85
2018-03-07T00:02:42.672Z,32.08
2018-03-07T00:03:46.107Z,31.75
2018-03-07T00:04:49.656Z,32.42
2018-03-07T00:05:53.118Z,32.80
2018-03-07T00:06:56.531Z,30.17
2018-03-07T00:07:59.885Z,31.60
2018-03-07T00:09:03.317Z,31.20
2018-03-07T00:10:06.726Z,30.50
2018-03-07T00:11:10.236Z,32.45
2018-03-07T00:12:14.308Z,30.67
2018-03-07T00:13:17.713Z,33.90
2018-03-07T00:14:21.232Z,32.55
2018-03-07T00:15:25.304Z,31.00
2018-03-07T00:16:28.735Z,32.83
2018-03-07T00:17:32.114Z,32.97
2018-03-07T00:18:35.544Z,30.20
2018-03-07T00:19:38.971Z,31.25
2018-03-07T00:20:42.286Z,31.58
2018-03-07T00:21:45.673Z,31.10
2018-03-07T00:22:49.023Z,31.35
2018-03-07T00:23:52.337Z,31.83
2018-03-07T00:24:55.722Z,31.87
2018-03-07T00:25:59.159Z,31.87
2018-03-07T00:27:02.584Z,30.30
2018-03-07T00:28:06.038Z,30.15
2018-03-07T00:29:09.424Z,31.87
2018-03-07T00:30:12.908Z,32.78
2018-03-07T00:31:16.313Z,32.15
2018-03-07T00:32:19.697Z,29.63
2018-03-07T00:33:23.223Z,31.40
2018-03-07T00:34:26.561Z,32.13
2018-03-07T00:35:29.876Z,32.22
2018-03-07T00:36:33.293Z,32.50
2018-03-07T00:37:37.077Z,30.67
2018-03-07T00:38:40.488Z,30.70
2018-03-07T00:39:43.860Z,30.60
2018-03-07T00:40:47.284Z,29.67
2018-03-07T00:41:50.637Z,30.45
2018-03-07T00:42:54.582Z,29.80
2018-03-07T00:43:57.917Z,30.83
2018-03-07T00:45:01.390Z,30.37
2018-03-07T00:46:04.695Z,29.30
2018-03-07T00:47:08.154Z,31.10
2018-03-07T00:48:11.656Z,31.20
2018-03-07T00:49:15.998Z,32.13
2018-03-07T00:50:19.372Z,32.65
2018-03-07T00:51:22.842Z,30.15
2018-03-07T00:52:26.336Z,32.45
2018-03-07T00:53:29.717Z,31.45
2018-03-07T00:54:33.204Z,29.95
2018-03-07T00:55:36.617Z,30.25
2018-03-07T00:56:40.058Z,28.80
2018-03-07T00:57:43.380Z,29.92
2018-03-07T00:58:47.017Z,29.80
2018-03-07T00:59:50.563Z,29.05
2018-03-07T01:00:54.046Z,28.48
2018-03-07T01:01:57.449Z,27.42
2018-03-07T01:03:00.885Z,30.60
2018-03-07T01:04:04.267Z,29.58
2018-03-07T01:05:07.746Z,28.15
2018-03-07T01:06:12.691Z,27.20
2018-03-07T01:07:16.032Z,28.60
2018-03-07T01:08:19.438Z,28.62
2018-03-07T01:09:22.772Z,28.30
2018-03-07T01:10:26.229Z,28.38
2018-03-07T01:11:29.614Z,27.92
2018-03-07T01:12:32.988Z,27.35
2018-03-07T01:13:36.411Z,29.17
2018-03-07T01:14:39.881Z,28.50
2018-03-07T01:15:43.328Z,28.40
2018-03-07T01:16:46.649Z,25.80
2018-03-07T01:17:50.122Z,27.70
2018-03-07T01:18:53.497Z,26.50
2018-03-07T01:19:56.829Z,27.70
2018-03-07T01:21:00.194Z,28.15
2018-03-07T01:22:03.623Z,26.67
2018-03-07T01:23:07.062Z,27.75
2018-03-07T01:24:10.397Z,28.17
2018-03-07T01:25:13.721Z,28.58
2018-03-07T01:26:17.104Z,28.23
2018-03-07T01:27:20.517Z,28.70
2018-03-07T01:28:23.876Z,28.30
2018-03-07T01:29:27.259Z,28.55
2018-03-07T01:30:30.584Z,28.20
2018-03-07T01:31:34.135Z,27.52
2018-03-07T01:32:37.467Z,26.02
2018-03-07T01:33:40.805Z,27.13
2018-03-07T01:34:44.128Z,26.80
2018-03-07T01:35:47.449Z,26.23
2018-03-07T01:36:50.997Z,27.55
2018-03-07T01:37:54.490Z,25.65
2018-03-07T01:38:57.864Z,26.90
2018-03-07T01:40:01.197Z,27.70
2018-03-07T01:41:04.628Z,27.00
2018-03-07T01:42:08.042Z,26.08
2018-03-07T01:43:11.479Z,26.08
2018-03-07T01:44:14.854Z,27.55
2018-03-07T01:45:18.262Z,26.83
2018-03-07T01:46:21.572Z,26.87
2018-03-07T01:47:25.003Z,26.92
2018-03-07T01:48:28.315Z,28.10
2018-03-07T01:49:33.251Z,26.98
2018-03-07T01:50:37.435Z,28.15
2018-03-07T01:51:52.430Z,26.02
2018-03-07T01:52:56.864Z,27.77
2018-03-07T01:54:01.049Z,27.08
2018-03-07T01:55:04.494Z,27.83
2018-03-07T01:56:07.851Z,26.98
2018-03-07T01:57:11.271Z,28.02
2018-03-07T01:58:14.645Z,28.45
2018-03-07T01:59:18.038Z,27.35
2018-03-07T02:00:21.497Z,28.20
2018-03-07T02:01:24.901Z,28.45
2018-03-07T02:02:28.369Z,26.90
2018-03-07T02:03:31.869Z,27.20
2018-03-07T02:04:35.301Z,29.60
2018-03-07T02:05:38.667Z,28.23
2018-03-07T02:06:41.996Z,25.95
2018-03-07T02:07:45.347Z,26.80
2018-03-07T02:08:48.792Z,27.77
2018-03-07T02:09:52.213Z,28.17
2018-03-07T02:10:55.596Z,30.02
2018-03-07T02:11:59.066Z,28.40
2018-03-07T02:13:02.446Z,27.52
2018-03-07T02:14:05.954Z,27.08
2018-03-07T02:15:09.282Z,26.45
2018-03-07T02:16:12.668Z,27.60
2018-03-07T02:17:16.019Z,28.98
2018-03-07T02:18:19.340Z,28.17
2018-03-07T02:19:22.867Z,26.70
2018-03-07T02:20:26.234Z,27.10
2018-03-07T02:21:29.624Z,28.70
2018-03-07T02:22:33.011Z,27.50
2018-03-07T02:23:36.388Z,28.73
2018-03-07T02:24:39.969Z,26.52
2018-03-07T02:25:43.305Z,27.40
2018-03-07T02:26:46.630Z,28.00
2018-03-07T02:27:50.008Z,27.05
2018-03-07T02:28:53.321Z,28.17
2018-03-07T02:29:56.713Z,27.40
2018-03-07T02:31:00.023Z,27.27
2018-03-07T02:32:03.388Z,26.95
2018-03-07T02:33:06.692Z,28.20
2018-03-07T02:34:10.004Z,26.33
2018-03-07T02:35:13.485Z,27.92
2018-03-07T02:36:28.634Z,28.20
2018-03-07T02:37:31.964Z,27.30
2018-03-07T02:38:35.377Z,26.65
2018-03-07T02:39:38.760Z,27.73
2018-03-07T02:40:42.173Z,25.60
2018-03-07T02:41:45.502Z,26.65
2018-03-07T02:42:48.841Z,26.95
2018-03-07T02:43:52.239Z,29.20
2018-03-07T02:44:55.753Z,26.30
2018-03-07T02:45:59.105Z,26.90
2018-03-07T02:47:02.429Z,25.25
2018-03-07T02:48:05.788Z,27.65
2018-03-07T02:49:09.215Z,28.48
2018-03-07T02:50:14.568Z,26.48
2018-03-07T02:51:17.944Z,26.98
2018-03-07T02:52:21.262Z,28.15
2018-03-07T02:53:25.047Z,27.65
2018-03-07T02:54:28.378Z,27.62
2018-03-07T02:55:31.719Z,27.08
2018-03-07T02:56:35.115Z,28.98
2018-03-07T02:57:38.468Z,26.70
2018-03-07T02:58:41.810Z,28.25
2018-03-07T02:59:45.149Z,28.58
2018-03-07T03:00:48.489Z,27.55
2018-03-07T03:01:51.886Z,28.00
2018-03-07T03:02:55.221Z,27.50
2018-03-07T03:03:58.608Z,26.23
2018-03-07T03:05:01.946Z,26.02
2018-03-07T03:06:05.267Z,27.62
2018-03-07T03:07:09.437Z,26.95
2018-03-07T03:08:12.749Z,27.52
2018-03-07T03:09:16.140Z,27.58
2018-03-07T03:10:19.435Z,27.33
2018-03-07T03:11:22.769Z,25.88
2018-03-07T03:12:26.232Z,27.52
2018-03-07T03:13:29.625Z,25.85
2018-03-07T03:14:33.050Z,27.75
2018-03-07T03:15:36.461Z,27.10
2018-03-07T03:16:39.829Z,27.17
2018-03-07T03:17:43.187Z,26.60
2018-03-07T03:18:46.582Z,28.05
2018-03-07T03:19:49.912Z,26.67
2018-03-07T03:20:54.263Z,26.00
2018-03-07T03:22:00.155Z,27.75
2018-03-07T03:23:03.498Z,26.05
2018-03-07T03:24:06.887Z,27.67
2018-03-07T03:25:11.502Z,26.67
2018-03-07T03:26:14.970Z,26.65
2018-03-07T03:27:18.313Z,27.17
2018-03-07T03:28:21.691Z,28.20
2018-03-07T03:29:25.016Z,25.45
2018-03-07T03:30:28.769Z,26.20
2018-03-07T03:31:32.092Z,27.30
2018-03-07T03:32:35.414Z,25.60
2018-03-07T03:33:38.781Z,25.40
2018-03-07T03:34:42.111Z,26.45
2018-03-07T03:35:45.503Z,25.77
2018-03-07T03:36:48.945Z,26.27
2018-03-07T03:37:52.273Z,26.95
2018-03-07T03:38:55.629Z,25.77
2018-03-07T03:39:58.997Z,25.85
2018-03-07T03:41:02.292Z,26.52
2018-03-07T03:42:05.779Z,25.10
2018-03-07T03:43:09.156Z,24.83
2018-03-07T03:44:12.538Z,25.70
2018-03-07T03:45:15.965Z,25.12
2018-03-07T03:46:19.422Z,27.13
2018-03-07T03:47:23.577Z,25.75
2018-03-07T03:48:26.989Z,25.67
2018-03-07T03:49:30.412Z,26.58
2018-03-07T03:50:34.596Z,26.62
2018-03-07T03:51:38.025Z,24.95
2018-03-07T03:52:41.347Z,24.12
2018-03-07T03:53:44.753Z,24.87
2018-03-07T03:54:48.182Z,24.60
2018-03-07T03:55:51.502Z,25.73
2018-03-07T03:56:54.910Z,26.73
2018-03-07T03:57:58.287Z,24.73
2018-03-07T03:59:01.680Z,24.90
2018-03-07T04:00:05.021Z,24.77
2018-03-07T04:01:08.424Z,24.75
2018-03-07T04:02:11.836Z,25.62
2018-03-07T04:03:15.228Z,26.20
2018-03-07T04:04:18.572Z,24.80
2018-03-07T04:05:21.960Z,24.10
2018-03-07T04:06:25.315Z,25.40
2018-03-07T04:07:28.682Z,23.45
2018-03-07T04:08:32.080Z,25.00
2018-03-07T04:09:35.402Z,24.50
2018-03-07T04:10:38.835Z,25.88
2018-03-07T04:11:42.169Z,25.45
2018-03-07T04:12:45.493Z,26.62
2018-03-07T04:13:48.876Z,24.20
2018-03-07T04:14:52.225Z,25.75
2018-03-07T04:15:55.626Z,24.92
2018-03-07T04:16:58.984Z,25.05
2018-03-07T04:18:02.368Z,23.62
2018-03-07T04:19:05.771Z,24.30
2018-03-07T04:20:09.219Z,24.80
2018-03-07T04:21:12.579Z,25.10
2018-03-07T04:22:15.936Z,24.15
2018-03-07T04:23:19.322Z,24.17
2018-03-07T04:24:22.679Z,28.00
2018-03-07T04:25:26.157Z,25.77
2018-03-07T04:26:29.578Z,25.10
2018-03-07T04:27:32.988Z,25.15
2018-03-07T04:28:36.296Z,26.05
2018-03-07T04:29:39.759Z,24.70
2018-03-07T04:30:43.069Z,28.02
2018-03-07T04:31:46.501Z,24.87
2018-03-07T04:32:49.887Z,25.75
2018-03-07T04:33:53.317Z,25.08
2018-03-07T04:34:56.664Z,23.70
2018-03-07T04:36:00.094Z,25.10
2018-03-07T04:37:03.502Z,25.08
2018-03-07T04:38:06.868Z,24.48
2018-03-07T04:39:10.250Z,24.87
2018-03-07T04:40:13.621Z,24.60
2018-03-07T04:41:16.961Z,24.55
2018-03-07T04:42:20.397Z,26.83
2018-03-07T04:43:23.731Z,24.30
2018-03-07T04:44:27.173Z,26.95
2018-03-07T04:45:30.492Z,23.70
2018-03-07T04:46:33.911Z,25.15
2018-03-07T04:47:38.124Z,24.65
2018-03-07T04:48:41.677Z,27.42
2018-03-07T04:49:45.018Z,24.92
2018-03-07T04:50:49.324Z,25.55
2018-03-07T04:51:52.697Z,26.00
2018-03-07T04:52:56.103Z,26.08
2018-03-07T04:53:59.483Z,26.37
2018-03-07T04:55:02.933Z,25.58
2018-03-07T04:56:06.813Z,24.75
2018-03-07T04:57:10.194Z,25.98
2018-03-07T04:58:13.668Z,27.17
2018-03-07T04:59:17.135Z,24.50
2018-03-07T05:00:20.666Z,24.77
2018-03-07T05:01:23.987Z,27.50
2018-03-07T05:02:27.357Z,24.98
2018-03-07T05:03:30.847Z,25.33
2018-03-07T05:04:34.243Z,25.55
2018-03-07T05:05:37.590Z,26.83
2018-03-07T05:06:40.939Z,27.65
2018-03-07T05:07:44.393Z,27.30
2018-03-07T05:08:47.782Z,27.00
2018-03-07T05:09:51.473Z,25.80
2018-03-07T05:10:54.813Z,25.83
2018-03-07T05:11:58.248Z,26.70
2018-03-07T05:13:01.604Z,27.13
2018-03-07T05:14:05.424Z,26.70
2018-03-07T05:15:08.795Z,25.65
2018-03-07T05:16:12.137Z,27.02
2018-03-07T05:17:15.461Z,25.73
2018-03-07T05:18:18.799Z,28.15
2018-03-07T05:19:22.314Z,27.60
2018-03-07T05:20:25.653Z,28.02
2018-03-07T05:21:29.024Z,29.60
2018-03-07T05:22:32.382Z,28.75
2018-03-07T05:23:35.978Z,29.77
2018-03-07T05:24:39.356Z,29.65
2018-03-07T05:25:42.772Z,29.50
2018-03-07T05:26:46.142Z,29.63
2018-03-07T05:27:50.296Z,27.45
2018-03-07T05:28:53.721Z,29.83
2018-03-07T05:29:57.140Z,30.33
2018-03-07T05:31:00.448Z,29.12
2018-03-07T05:32:03.782Z,28.85
2018-03-07T05:33:07.109Z,29.30
2018-03-07T05:34:10.488Z,29.77
2018-03-07T05:35:13.876Z,29.63
2018-03-07T05:36:17.314Z,29.65
2018-03-07T05:37:20.667Z,29.52
2018-03-07T05:38:24.008Z,28.75
2018-03-07T05:39:27.345Z,29.10
2018-03-07T05:40:30.720Z,28.65
2018-03-07T05:41:34.027Z,30.60
2018-03-07T05:42:37.364Z,29.98
2018-03-07T05:43:40.693Z,29.20
2018-03-07T05:44:44.042Z,29.75
2018-03-07T05:45:47.505Z,28.98
2018-03-07T05:46:50.839Z,28.38
2018-03-07T05:47:54.145Z,33.38
2018-03-07T05:48:57.598Z,29.35
2018-03-07T05:50:00.902Z,29.87
2018-03-07T05:51:05.192Z,28.85
2018-03-07T05:52:08.535Z,26.73
2018-03-07T05:53:11.904Z,26.70
2018-03-07T05:54:15.303Z,26.60
2018-03-07T05:55:18.686Z,26.92
2018-03-07T05:56:22.040Z,26.25
2018-03-07T05:57:25.430Z,25.40
2018-03-07T05:58:28.847Z,25.90
2018-03-07T05:59:32.202Z,25.25
2018-03-07T06:00:35.592Z,25.35
2018-03-07T06:01:38.959Z,25.10
2018-03-07T06:02:42.378Z,24.45
2018-03-07T06:03:45.738Z,24.48
2018-03-07T06:04:49.110Z,26.00
2018-03-07T06:05:52.446Z,22.25
2018-03-07T06:06:56.081Z,24.17
2018-03-07T06:07:59.409Z,26.05
2018-03-07T06:09:02.753Z,24.77
2018-03-07T06:10:06.164Z,24.48
2018-03-07T06:11:09.484Z,24.12
2018-03-07T06:12:12.887Z,23.55
2018-03-07T06:13:16.246Z,25.10
2018-03-07T06:14:20.585Z,22.95
2018-03-07T06:15:24.036Z,23.70
2018-03-07T06:16:27.358Z,23.83
2018-03-07T06:17:30.712Z,24.40
2018-03-07T06:18:34.068Z,25.00
2018-03-07T06:19:37.402Z,23.73
2018-03-07T06:20:40.716Z,23.00
2018-03-07T06:21:44.028Z,25.12
2018-03-07T06:22:47.434Z,25.17
2018-03-07T06:23:50.785Z,22.62
2018-03-07T06:24:54.200Z,23.65
2018-03-07T06:25:57.588Z,22.35
2018-03-07T06:27:00.975Z,22.80
2018-03-07T06:28:04.319Z,21.95
2018-03-07T06:29:07.747Z,22.55
2018-03-07T06:30:11.066Z,23.60
2018-03-07T06:31:14.377Z,24.60
2018-03-07T06:32:17.830Z,23.30
2018-03-07T06:33:21.206Z,25.08
2018-03-07T06:34:24.613Z,22.00
2018-03-07T06:35:27.971Z,22.55
2018-03-07T06:36:31.301Z,23.70
2018-03-07T06:37:34.646Z,24.42
2018-03-07T06:38:38.019Z,23.75
2018-03-07T06:39:41.325Z,21.73
2018-03-07T06:40:44.688Z,23.20
2018-03-07T06:41:48.147Z,24.25
2018-03-07T06:42:51.552Z,25.88
2018-03-07T06:43:55.062Z,24.25
2018-03-07T06:44:58.373Z,24.40
2018-03-07T06:46:01.930Z,22.65
2018-03-07T06:47:05.257Z,21.95
2018-03-07T06:48:08.725Z,24.48
2018-03-07T06:49:12.109Z,23.20
2018-03-07T06:50:15.563Z,22.83
2018-03-07T06:51:19.147Z,22.02
2018-03-07T06:52:22.716Z,22.62
2018-03-07T06:53:33.127Z,24.95
2018-03-07T06:54:37.155Z,22.75
2018-03-07T06:55:40.664Z,24.20
2018-03-07T06:56:44.111Z,25.98
2018-03-07T06:57:47.513Z,24.17
2018-03-07T06:58:50.955Z,23.08
2018-03-07T06:59:54.366Z,24.15
2018-03-07T07:00:57.743Z,23.35
2018-03-07T07:02:01.191Z,22.52
2018-03-07T07:03:04.512Z,22.42
2018-03-07T07:04:07.819Z,23.15
2018-03-07T07:05:11.228Z,22.37
2018-03-07T07:06:14.562Z,23.15
2018-03-07T07:07:17.882Z,23.10
2018-03-07T07:08:21.192Z,23.08
2018-03-07T07:09:24.521Z,23.38
2018-03-07T07:10:27.964Z,23.92
2018-03-07T07:11:31.333Z,24.23
2018-03-07T07:12:34.688Z,22.75
2018-03-07T07:13:38.089Z,22.13
2018-03-07T07:14:41.475Z,23.62
2018-03-07T07:15:44.918Z,23.45
2018-03-07T07:16:48.653Z,23.62
2018-03-07T07:17:52.314Z,23.30
2018-03-07T07:18:55.758Z,24.40
2018-03-07T07:19:59.101Z,23.77
2018-03-07T07:21:02.597Z,23.55
2018-03-07T07:22:05.989Z,24.70
2018-03-07T07:23:09.386Z,23.95
2018-03-07T07:24:12.789Z,22.95
2018-03-07T07:25:16.232Z,24.30
2018-03-07T07:26:19.636Z,24.75
2018-03-07T07:27:23.059Z,23.15
2018-03-07T07:28:26.608Z,25.10
2018-03-07T07:29:29.943Z,23.38
2018-03-07T07:30:33.306Z,24.10
2018-03-07T07:31:36.695Z,22.65
2018-03-07T07:32:40.073Z,23.42
2018-03-07T07:33:43.574Z,24.58
2018-03-07T07:34:46.947Z,24.10
2018-03-07T07:35:50.381Z,22.65
2018-03-07T07:36:54.000Z,22.77
2018-03-07T07:37:57.328Z,22.92
2018-03-07T07:39:01.405Z,22.20
2018-03-07T07:40:05.058Z,23.30
2018-03-07T07:41:08.436Z,22.50
2018-03-07T07:42:12.243Z,23.05
2018-03-07T07:43:15.550Z,23.30
2018-03-07T07:44:18.939Z,21.85
2018-03-07T07:45:22.251Z,22.10
2018-03-07T07:46:25.595Z,20.52
2018-03-07T07:47:29.022Z,22.77
2018-03-07T07:48:32.509Z,22.75
2018-03-07T07:49:35.872Z,21.90
2018-03-07T07:50:39.184Z,22.23
2018-03-07T07:51:43.485Z,23.02
2018-03-07T07:52:46.897Z,23.23
2018-03-07T07:53:50.324Z,24.85
2018-03-07T07:54:53.744Z,24.10
2018-03-07T07:55:57.074Z,22.30
2018-03-07T07:57:00.464Z,23.52
2018-03-07T07:58:04.692Z,22.00
2018-03-07T07:59:09.603Z,22.15
2018-03-07T08:00:15.381Z,22.45
2018-03-07T08:01:18.733Z,20.60
2018-03-07T08:02:22.093Z,20.30
2018-03-07T08:03:25.483Z,21.48
2018-03-07T08:04:28.943Z,20.48
2018-03-07T08:05:32.419Z,21.45
2018-03-07T08:06:35.957Z,21.33
2018-03-07T08:07:39.332Z,21.73
2018-03-07T08:08:42.677Z,20.02
2018-03-07T08:09:46.067Z,21.90
2018-03-07T08:10:49.402Z,21.20
2018-03-07T08:11:52.746Z,22.75
2018-03-07T08:12:56.122Z,20.67
2018-03-07T08:13:59.704Z,19.02
2018-03-07T08:15:03.103Z,19.62
2018-03-07T08:16:06.660Z,18.15
2018-03-07T08:17:10.034Z,19.60
2018-03-07T08:18:13.427Z,21.48
2018-03-07T08:19:16.745Z,19.77
2018-03-07T08:20:20.119Z,19.50
2018-03-07T08:21:23.607Z,20.33
2018-03-07T08:22:27.096Z,21.48
2018-03-07T08:23:30.525Z,19.80
2018-03-07T08:24:35.475Z,21.98
2018-03-07T08:25:38.865Z,20.85
2018-03-07T08:26:42.173Z,20.20
2018-03-07T08:27:45.514Z,19.45
2018-03-07T08:28:48.919Z,18.58
2018-03-07T08:29:53.199Z,21.08
2018-03-07T08:30:56.512Z,22.02
2018-03-07T08:31:59.868Z,19.30
2018-03-07T08:33:03.233Z,19.85
2018-03-07T08:34:06.580Z,19.95
2018-03-07T08:35:10.074Z,21.77
2018-03-07T08:36:13.440Z,20.98
2018-03-07T08:37:16.843Z,21.35
2018-03-07T08:38:20.260Z,18.75
2018-03-07T08:39:23.857Z,19.60
2018-03-07T08:40:27.338Z,27.52
2018-03-07T08:41:30.646Z,19.48
2018-03-07T08:42:34.024Z,18.15
2018-03-07T08:43:37.443Z,20.83
2018-03-07T08:44:40.850Z,18.60
2018-03-07T08:45:44.203Z,20.12
2018-03-07T08:46:47.522Z,17.30
2018-03-07T08:47:51.038Z,19.02
2018-03-07T08:48:54.425Z,19.15
2018-03-07T08:49:57.797Z,18.42
2018-03-07T08:51:01.137Z,18.45
2018-03-07T08:52:05.363Z,16.65
2018-03-07T08:53:08.728Z,17.48
2018-03-07T08:54:12.148Z,17.20
2018-03-07T08:55:15.488Z,17.40
2018-03-07T08:56:18.839Z,19.75
2018-03-07T08:57:22.243Z,18.45
2018-03-07T08:58:26.197Z,20.52
2018-03-07T08:59:29.563Z,19.40
2018-03-07T09:00:32.937Z,19.00
2018-03-07T09:01:36.399Z,18.83
2018-03-07T09:02:39.701Z,17.85
2018-03-07T09:03:43.017Z,19.05
2018-03-07T09:04:46.375Z,19.90
2018-03-07T09:05:49.719Z,20.62
2018-03-07T09:06:53.219Z,21.42
2018-03-07T09:07:56.532Z,20.52
2018-03-07T09:08:59.916Z,20.50
2018-03-07T09:10:03.275Z,18.80
2018-03-07T09:11:06.714Z,22.05
2018-03-07T09:12:10.042Z,20.20
2018-03-07T09:13:13.358Z,20.05
2018-03-07T09:14:16.684Z,22.75
2018-03-07T09:15:20.057Z,22.60
2018-03-07T09:16:24.360Z,21.10
2018-03-07T09:17:27.687Z,20.80
2018-03-07T09:18:31.056Z,17.98
2018-03-07T09:19:34.423Z,19.80
2018-03-07T09:20:38.228Z,18.98
2018-03-07T09:21:41.509Z,21.20
2018-03-07T09:22:45.609Z,19.37
2018-03-07T09:23:48.924Z,18.90
2018-03-07T09:24:52.240Z,20.67
2018-03-07T09:25:55.563Z,21.42
2018-03-07T09:26:58.912Z,17.37
2018-03-07T09:28:02.281Z,20.02
2018-03-07T09:29:05.788Z,21.65
2018-03-07T09:30:09.148Z,20.05
2018-03-07T09:31:12.556Z,21.52
2018-03-07T09:32:15.939Z,20.12
2018-03-07T09:33:19.345Z,20.45
2018-03-07T09:34:22.792Z,19.92
2018-03-07T09:35:26.137Z,20.20
2018-03-07T09:36:29.501Z,20.70
2018-03-07T09:37:32.817Z,18.98
2018-03-07T09:38:36.185Z,21.85
2018-03-07T09:39:39.661Z,20.15
2018-03-07T09:40:43.052Z,22.02
2018-03-07T09:41:46.517Z,19.55
2018-03-07T09:42:49.880Z,19.10
2018-03-07T09:43:53.310Z,19.98
2018-03-07T09:44:56.690Z,19.92
2018-03-07T09:46:00.005Z,20.95
2018-03-07T09:47:03.328Z,20.52
2018-03-07T09:48:06.708Z,19.33
2018-03-07T09:49:10.147Z,19.05
2018-03-07T09:50:13.488Z,19.33
2018-03-07T09:51:16.899Z,20.37
2018-03-07T09:52:20.426Z,18.67
2018-03-07T09:53:23.769Z,21.25
2018-03-07T09:54:27.126Z,24.05
2018-03-07T09:55:30.467Z,18.92
2018-03-07T09:56:33.907Z,18.52
2018-03-07T09:57:37.315Z,19.58
2018-03-07T09:58:40.645Z,19.95
2018-03-07T09:59:44.084Z,18.15
2018-03-07T10:00:48.263Z,20.80
2018-03-07T10:01:51.663Z,21.30
2018-03-07T10:02:55.000Z,21.02
2018-03-07T10:03:58.390Z,20.48
2018-03-07T10:05:03.585Z,18.83
2018-03-07T10:06:06.914Z,19.65
2018-03-07T10:07:10.319Z,18.05
2018-03-07T10:08:13.730Z,19.87
2018-03-07T10:09:17.108Z,18.90
2018-03-07T10:10:20.458Z,19.45
2018-03-07T10:11:23.786Z,20.48
2018-03-07T10:12:27.123Z,17.25
2018-03-07T10:13:30.428Z,17.00
2018-03-07T10:14:33.796Z,20.05
2018-03-07T10:15:37.175Z,21.12
2018-03-07T10:16:40.585Z,19.02
2018-03-07T10:17:43.898Z,17.62
2018-03-07T10:18:47.253Z,18.48
2018-03-07T10:19:50.765Z,18.30
2018-03-07T10:20:54.158Z,19.60
2018-03-07T10:21:57.549Z,17.42
2018-03-07T10:23:00.857Z,20.35
2018-03-07T10:24:04.310Z,20.00
2018-03-07T10:25:07.631Z,19.00
2018-03-07T10:26:11.052Z,19.65
2018-03-07T10:27:14.391Z,18.98
2018-03-07T10:28:17.716Z,18.75
2018-03-07T10:29:21.071Z,19.15
2018-03-07T10:30:24.533Z,18.77
2018-03-07T10:31:27.904Z,17.75
2018-03-07T10:32:31.291Z,17.92
2018-03-07T10:33:34.628Z,17.55
2018-03-07T10:34:37.957Z,17.45
2018-03-07T10:35:41.671Z,19.90
2018-03-07T10:36:45.081Z,19.30
2018-03-07T10:37:48.421Z,16.83
2018-03-07T10:38:51.773Z,19.50
2018-03-07T10:39:55.221Z,17.73
2018-03-07T10:40:58.672Z,17.33
2018-03-07T10:42:02.169Z,18.50
2018-03-07T10:43:05.528Z,17.40
2018-03-07T10:44:08.890Z,17.70
2018-03-07T10:45:12.598Z,18.10
2018-03-07T10:46:15.977Z,18.58
2018-03-07T10:47:19.396Z,17.40
2018-03-07T10:48:22.713Z,18.62
2018-03-07T10:49:26.067Z,18.77
2018-03-07T10:50:29.422Z,17.33
2018-03-07T10:51:32.780Z,20.65
2018-03-07T10:52:36.965Z,19.25
2018-03-07T10:53:40.386Z,18.62
2018-03-07T10:54:43.790Z,18.83
2018-03-07T10:55:47.332Z,19.65
2018-03-07T10:56:50.929Z,18.70
2018-03-07T10:57:54.409Z,16.55
2018-03-07T10:58:57.889Z,18.42
2018-03-07T11:00:01.306Z,18.98
2018-03-07T11:01:04.686Z,19.87
2018-03-07T11:02:08.142Z,17.40
2018-03-07T11:03:11.555Z,19.92
2018-03-07T11:04:14.954Z,17.65
2018-03-07T11:05:18.288Z,18.85
2018-03-07T11:06:21.815Z,19.52
2018-03-07T11:07:25.159Z,18.77
2018-03-07T11:08:29.194Z,17.52
2018-03-07T11:09:32.722Z,19.00
2018-03-07T11:10:36.194Z,20.10
2018-03-07T11:11:40.290Z,19.33
2018-03-07T11:12:43.941Z,19.98
2018-03-07T11:13:47.421Z,18.83
2018-03-07T11:14:50.777Z,19.62
2018-03-07T11:15:54.266Z,19.12
2018-03-07T11:16:57.633Z,19.65
2018-03-07T11:18:01.023Z,19.25
2018-03-07T11:19:04.419Z,18.50
2018-03-07T11:20:07.784Z,19.15
2018-03-07T11:21:11.176Z,20.73
2018-03-07T11:22:14.536Z,19.65
2018-03-07T11:23:17.927Z,19.27
2018-03-07T11:24:21.394Z,18.35
2018-03-07T11:25:24.852Z,19.92
2018-03-07T11:26:28.197Z,21.52
2018-03-07T11:27:31.604Z,20.10
2018-03-07T11:28:35.229Z,20.33
2018-03-07T11:29:38.592Z,20.05
2018-03-07T11:30:42.024Z,18.50
2018-03-07T11:31:45.479Z,22.02
2018-03-07T11:32:49.532Z,20.25
2018-03-07T11:33:52.945Z,20.05
2018-03-07T11:34:56.358Z,18.15
2018-03-07T11:35:59.789Z,19.02
2018-03-07T11:37:03.133Z,19.08
2018-03-07T11:38:06.518Z,18.95
2018-03-07T11:39:09.969Z,18.77
2018-03-07T11:40:13.380Z,19.45
2018-03-07T11:41:19.682Z,18.42
2018-03-07T11:42:23.021Z,18.50
2018-03-07T11:43:26.452Z,18.85
2018-03-07T11:44:29.773Z,16.58
2018-03-07T11:45:33.183Z,17.62
2018-03-07T11:46:36.646Z,17.45
2018-03-07T11:47:40.160Z,17.35
2018-03-07T11:48:43.515Z,16.55
2018-03-07T11:49:46.950Z,16.40
2018-03-07T11:50:50.518Z,15.55
2018-03-07T11:51:53.976Z,15.88
2018-03-07T11:52:58.215Z,14.70
2018-03-07T11:54:01.572Z,15.27
2018-03-07T11:55:05.032Z,16.45
2018-03-07T11:56:08.504Z,19.15
2018-03-07T11:57:11.816Z,17.73
2018-03-07T11:58:15.170Z,18.33
2018-03-07T11:59:18.740Z,16.20
2018-03-07T12:00:22.112Z,15.80
2018-03-07T12:01:25.546Z,16.08
2018-03-07T12:02:30.585Z,15.57
2018-03-07T12:03:34.040Z,16.33
2018-03-07T12:04:37.360Z,16.85
2018-03-07T12:05:40.695Z,16.65
2018-03-07T12:06:44.084Z,17.35
2018-03-07T12:07:47.455Z,16.25
2018-03-07T12:08:50.806Z,15.88
2018-03-07T12:09:54.196Z,16.60
2018-03-07T12:10:57.812Z,17.92
2018-03-07T12:12:01.207Z,17.85
2018-03-07T12:13:04.559Z,15.95
2018-03-07T12:14:07.957Z,16.27
2018-03-07T12:15:11.644Z,17.25
2018-03-07T12:16:15.042Z,18.55
2018-03-07T12:17:18.449Z,17.15
2018-03-07T12:18:21.823Z,17.33
2018-03-07T12:19:25.205Z,18.58
2018-03-07T12:20:28.634Z,19.83
2018-03-07T12:21:31.952Z,17.60
2018-03-07T12:22:35.323Z,15.80
2018-03-07T12:23:38.724Z,18.42
2018-03-07T12:24:42.196Z,19.60
2018-03-07T12:25:45.537Z,17.70
2018-03-07T12:26:48.880Z,18.12
2018-03-07T12:29:01.823Z,19.48
2018-03-07T12:30:05.161Z,21.80
2018-03-07T12:31:08.511Z,18.50
2018-03-07T12:32:11.848Z,19.70
2018-03-07T12:33:15.264Z,18.40
2018-03-07T12:34:18.653Z,18.62
2018-03-07T12:35:22.046Z,18.55
2018-03-07T12:36:25.439Z,17.58
2018-03-07T12:37:29.075Z,18.83
2018-03-07T12:38:32.495Z,18.08
2018-03-07T12:39:35.946Z,17.10
2018-03-07T12:40:39.273Z,18.37
2018-03-07T12:41:42.794Z,21.60
2018-03-07T12:42:46.109Z,20.23
2018-03-07T12:43:49.521Z,18.55
2018-03-07T12:44:52.834Z,19.65
2018-03-07T12:45:56.167Z,17.85
2018-03-07T12:46:59.799Z,18.25
2018-03-07T12:48:03.103Z,19.83
2018-03-07T12:49:06.582Z,19.08
2018-03-07T12:50:09.886Z,19.17
2018-03-07T12:51:13.236Z,19.25
2018-03-07T12:52:16.737Z,18.95
2018-03-07T12:53:21.572Z,19.02
2018-03-07T12:54:24.943Z,19.00
2018-03-07T12:55:28.258Z,18.58
2018-03-07T12:56:31.660Z,19.50
2018-03-07T12:57:35.875Z,17.60
2018-03-07T12:58:39.243Z,17.75
2018-03-07T12:59:42.648Z,17.15
2018-03-07T13:00:46.347Z,16.95
2018-03-07T13:01:49.720Z,17.02
2018-03-07T13:02:53.075Z,18.08
2018-03-07T13:03:56.397Z,16.85
2018-03-07T13:04:59.892Z,17.95
2018-03-07T13:06:03.207Z,19.58
2018-03-07T13:07:06.685Z,18.48
2018-03-07T13:08:10.126Z,16.80
2018-03-07T13:09:13.563Z,16.95
2018-03-07T13:10:17.001Z,17.35
2018-03-07T13:11:20.327Z,19.20
2018-03-07T13:12:23.891Z,18.15
2018-03-07T13:13:27.208Z,19.17
2018-03-07T13:14:30.705Z,19.83
2018-03-07T13:15:34.082Z,18.83
2018-03-07T13:16:37.407Z,19.60
2018-03-07T13:17:40.761Z,19.95
2018-03-07T13:18:44.167Z,20.60
2018-03-07T13:19:48.153Z,19.08
2018-03-07T13:20:52.416Z,20.67
2018-03-07T13:21:56.166Z,20.35
2018-03-07T13:22:59.482Z,19.73
2018-03-07T13:24:02.877Z,20.62
2018-03-07T13:25:06.308Z,20.33
2018-03-07T13:26:09.727Z,20.08
2018-03-07T13:27:13.061Z,23.12
2018-03-07T13:28:16.491Z,20.25
2018-03-07T13:29:19.858Z,20.60
2018-03-07T13:30:23.318Z,19.90
2018-03-07T13:31:26.747Z,19.40
2018-03-07T13:32:30.173Z,18.40
2018-03-07T13:33:33.793Z,19.62
2018-03-07T13:34:37.203Z,20.70
2018-03-07T13:35:40.616Z,18.50
2018-03-07T13:36:43.950Z,18.95
2018-03-07T13:37:47.607Z,17.58
2018-03-07T13:38:51.258Z,18.40